M I D A S
Marine Information and Data Acquisition System
Tripno 2030 of the Zeeleeuw from 2011-01-13 07:54:20 to 2011-01-13 14:47:15
Back to CruiseResearch ActivitiesStationsMapUnderway DataData graphs

EquipmentUnitsComment
TimeDGPSUTC
LatitudeDGPSDM.mWGS84
LongitudeDGPSDM.mWGS84
HeadingGyrodeg 
SOGDGPSknotsSpeed over ground
COGDGPSdegCourse over ground
DepthEcho soundermeters200 kHz
Missing or incorrect values are displayed as -999
Navigation data collected by the RV Zeeleeuw from 2011-01-13 07:46:14 to 2011-01-13 14:51:57
                                                                                    Next 1000 lines
Time Latitude Longitude Heading SOG COG Depth
2011-01-13 07:46:24 51°13.662 2°55.962 126.3 -999 241 9.2
2011-01-13 07:46:29 51°13.662 2°55.962 126.1 -999 203 9.1
2011-01-13 07:46:34 51°13.662 2°55.962 125.9 -999 201 9.1
2011-01-13 07:46:39 51°13.662 2°55.962 125.8 0.1 227 9.2
2011-01-13 07:46:44 51°13.662 2°55.962 125.8 0.1 221 9.2
2011-01-13 07:46:48 51°13.662 2°55.962 126 0.1 45 9.2
2011-01-13 07:46:54 51°13.662 2°55.962 126 -999 244 9.3
2011-01-13 07:47:00 51°13.662 2°55.962 126 0.1 214 -999
2011-01-13 07:47:04 51°13.662 2°55.961 126 -999 345 9.2
2011-01-13 07:47:09 51°13.661 2°55.961 126 0.1 249 9.2
2011-01-13 07:47:14 51°13.661 2°55.961 126 0.1 238 9.1
2011-01-13 07:47:19 51°13.661 2°55.961 125.9 0.1 259 9.1
2011-01-13 07:47:24 51°13.661 2°55.961 125.9 0.1 242 9.2
2011-01-13 07:47:29 51°13.661 2°55.962 125.9 0.1 218 9.1
2011-01-13 07:47:33 51°13.662 2°55.962 125.9 -999 74 9.1
2011-01-13 07:47:38 51°13.661 2°55.961 125.8 0.1 246 9.1
2011-01-13 07:47:43 51°13.661 2°55.962 125.6 0.1 215 9.1
2011-01-13 07:47:48 51°13.661 2°55.962 125.4 -999 100 9.1
2011-01-13 07:47:53 51°13.661 2°55.962 125.3 -999 140 9.1
2011-01-13 07:47:58 51°13.661 2°55.961 125.3 0.1 209 -999
2011-01-13 07:48:03 51°13.661 2°55.962 125.6 0.1 229 9.2
2011-01-13 07:48:09 51°13.662 2°55.962 125.8 -999 193 -999
2011-01-13 07:48:13 51°13.662 2°55.962 126 -999 68 -999
2011-01-13 07:48:19 51°13.662 2°55.962 126 0.1 47 -999
2011-01-13 07:48:25 51°13.662 2°55.962 125.7 -999 83 9.1
2011-01-13 07:48:30 51°13.662 2°55.962 125.6 -999 215 9.1
2011-01-13 07:48:34 51°13.662 2°55.962 125.6 -999 215 9.1
2011-01-13 07:48:39 51°13.662 2°55.962 125.6 -999 133 9.2
2011-01-13 07:48:44 51°13.662 2°55.963 125.5 -999 206 9.2
2011-01-13 07:48:49 51°13.662 2°55.963 125.2 0.1 346 9.1
2011-01-13 07:48:54 51°13.662 2°55.963 125.1 -999 333 9.1
2011-01-13 07:48:58 51°13.662 2°55.963 125.1 -999 346 9.1
2011-01-13 07:49:04 51°13.662 2°55.963 125.1 -999 331 9.1
2011-01-13 07:49:09 51°13.662 2°55.963 125.1 0.1 232 9.1
2011-01-13 07:49:15 51°13.662 2°55.963 125.2 -999 98 -999
2011-01-13 07:49:19 51°13.662 2°55.963 125.3 -999 169 9.1
2011-01-13 07:49:24 51°13.662 2°55.963 125.3 -999 146 9.1
2011-01-13 07:49:28 51°13.662 2°55.963 125.2 -999 91 9.1
2011-01-13 07:49:34 51°13.662 2°55.963 125.1 -999 215 9.1
2011-01-13 07:49:39 51°13.662 2°55.963 125.1 -999 93 9.1
2011-01-13 07:49:44 51°13.662 2°55.963 125.1 0.1 68 9.1
2011-01-13 07:49:48 51°13.662 2°55.963 125.1 0.1 60 9.1
2011-01-13 07:49:53 51°13.662 2°55.963 125.1 0.1 196 -999
2011-01-13 07:49:58 51°13.662 2°55.963 125.1 0.1 71 9.1
2011-01-13 07:50:03 51°13.662 2°55.963 125.2 0.1 188 9.1
2011-01-13 07:50:08 51°13.662 2°55.963 125.2 -999 200 9.2
2011-01-13 07:50:13 51°13.662 2°55.963 125.2 -999 226 9.2
2011-01-13 07:50:18 51°13.662 2°55.963 125.2 -999 183 9.1
2011-01-13 07:50:23 51°13.662 2°55.963 125.2 -999 65 9.1
2011-01-13 07:50:28 51°13.662 2°55.963 125.3 0.1 242 9.2
2011-01-13 07:50:33 51°13.662 2°55.963 125.8 0.1 249 9.1
2011-01-13 07:50:38 51°13.662 2°55.963 126.2 0.1 5 9.1
2011-01-13 07:50:43 51°13.662 2°55.963 126.3 0.1 7 9.2
2011-01-13 07:50:50 51°13.662 2°55.963 125.7 -999 9 9.1
2011-01-13 07:50:54 51°13.662 2°55.963 125.2 -999 277 9.1
2011-01-13 07:50:59 51°13.662 2°55.963 124.6 -999 344 9.1
2011-01-13 07:51:05 51°13.662 2°55.963 124.2 -999 257 9.1
2011-01-13 07:51:10 51°13.662 2°55.962 123.8 -999 79 9.1
2011-01-13 07:51:15 51°13.662 2°55.962 123.7 0.1 176 9.1
2011-01-13 07:51:20 51°13.662 2°55.962 123.8 0.1 140 9.1
2011-01-13 07:51:24 51°13.662 2°55.963 124.3 0.1 128 9.1
2011-01-13 07:51:30 51°13.662 2°55.963 124.9 -999 24 9.1
2011-01-13 07:51:35 51°13.662 2°55.963 125.5 0.1 352 9.1
2011-01-13 07:51:40 51°13.662 2°55.962 125.6 -999 291 9.1
2011-01-13 07:51:44 51°13.662 2°55.962 125.6 -999 221 9.1
2011-01-13 07:51:49 51°13.662 2°55.962 125.6 -999 142 9.1
2011-01-13 07:51:54 51°13.662 2°55.963 125.5 0.1 99 9.1
2011-01-13 07:51:59 51°13.662 2°55.962 125.5 0.1 181 9.4
2011-01-13 07:52:04 51°13.662 2°55.963 125.5 0.1 34 9.1
2011-01-13 07:52:08 51°13.662 2°55.963 125.5 -999 285 9.1
2011-01-13 07:52:13 51°13.662 2°55.963 125.5 -999 80 9.1
2011-01-13 07:52:19 51°13.662 2°55.963 125.5 0.1 211 9.1
2011-01-13 07:52:25 51°13.662 2°55.963 125.5 -999 48 9.1
2011-01-13 07:52:30 51°13.662 2°55.962 125.3 -999 79 9.1
2011-01-13 07:52:34 51°13.662 2°55.962 125.3 -999 201 9.1
2011-01-13 07:52:40 51°13.662 2°55.962 125.3 -999 8 9.1
2011-01-13 07:52:46 51°13.662 2°55.962 125.3 -999 352 9.1
2011-01-13 07:52:50 51°13.662 2°55.962 125.3 -999 195 9.1
2011-01-13 07:52:55 51°13.662 2°55.962 125.3 -999 209 9.1
2011-01-13 07:52:59 51°13.662 2°55.962 125.3 0.1 12 9
2011-01-13 07:53:05 51°13.662 2°55.962 125.5 0.1 26 9.1
2011-01-13 07:53:10 51°13.662 2°55.963 125.6 0.1 7 9.1
2011-01-13 07:53:15 51°13.662 2°55.963 125.7 -999 22 9.1
2011-01-13 07:53:19 51°13.662 2°55.963 125.7 -999 355 9.1
2011-01-13 07:53:24 51°13.663 2°55.963 125.7 -999 99 -999
2011-01-13 07:53:30 51°13.662 2°55.963 125.7 -999 178 9.1
2011-01-13 07:53:35 51°13.662 2°55.963 125.6 -999 192 9.1
2011-01-13 07:53:39 51°13.662 2°55.963 125.4 -999 179 9.2
2011-01-13 07:53:44 51°13.662 2°55.963 125.2 -999 215 9
2011-01-13 07:53:49 51°13.662 2°55.963 125.2 -999 325 -999
2011-01-13 07:53:55 51°13.662 2°55.963 125.6 -999 31 -999
2011-01-13 07:53:59 51°13.662 2°55.962 125.7 -999 165 -999
2011-01-13 07:54:05 51°13.662 2°55.962 125.7 -999 206 9.2
2011-01-13 07:54:10 51°13.662 2°55.962 125.7 -999 203 -999
2011-01-13 07:54:16 51°13.662 2°55.962 125.7 -999 194 9.1
2011-01-13 07:54:20 51°13.662 2°55.962 125.7 -999 232 9.2
2011-01-13 07:54:25 51°13.662 2°55.962 125.8 -999 217 9.1
2011-01-13 07:54:30 51°13.662 2°55.962 125.9 0.1 64 9.1
2011-01-13 07:54:35 51°13.662 2°55.962 126.1 -999 178 9.1
2011-01-13 07:54:41 51°13.662 2°55.962 126.1 -999 163 -999
2011-01-13 07:54:44 51°13.662 2°55.962 125.9 -999 183 9.1
2011-01-13 07:54:51 51°13.662 2°55.962 125.8 -999 34 9.1
2011-01-13 07:54:55 51°13.662 2°55.962 125.7 -999 41 9.1
2011-01-13 07:55:00 51°13.662 2°55.962 125.7 -999 16 9.1
2011-01-13 07:55:05 51°13.662 2°55.962 125.7 -999 3 9.1
2011-01-13 07:55:09 51°13.662 2°55.962 125.6 -999 298 9.1
2011-01-13 07:55:15 51°13.662 2°55.962 125.6 -999 202 9.2
2011-01-13 07:55:20 51°13.662 2°55.962 125.7 -999 221 9.1
2011-01-13 07:55:25 51°13.662 2°55.962 126.1 -999 209 9.1
2011-01-13 07:55:30 51°13.662 2°55.962 126.4 -999 207 9.1
2011-01-13 07:55:34 51°13.662 2°55.962 126.5 -999 196 9.1
2011-01-13 07:55:39 51°13.662 2°55.962 126.6 -999 182 9.1
2011-01-13 07:55:44 51°13.662 2°55.962 126.6 -999 204 9
2011-01-13 07:55:50 51°13.662 2°55.962 126.6 -999 234 9.1
2011-01-13 07:55:54 51°13.662 2°55.962 126.6 -999 53 9.1
2011-01-13 07:55:59 51°13.662 2°55.962 126.6 0.1 62 -999
2011-01-13 07:56:05 51°13.662 2°55.962 126.6 0.1 73 9.2
2011-01-13 07:56:10 51°13.662 2°55.962 126.4 0.1 172 9
2011-01-13 07:56:14 51°13.662 2°55.962 125.5 0.1 46 9
2011-01-13 07:56:20 51°13.662 2°55.962 124.9 -999 17 9
2011-01-13 07:56:25 51°13.662 2°55.962 124 -999 216 9
2011-01-13 07:56:30 51°13.662 2°55.962 123.5 -999 88 9
2011-01-13 07:56:35 51°13.662 2°55.962 122.9 -999 189 9
2011-01-13 07:56:40 51°13.662 2°55.962 122.5 -999 187 9
2011-01-13 07:56:45 51°13.662 2°55.962 121.9 -999 151 9
2011-01-13 07:56:50 51°13.662 2°55.962 121.3 -999 122 9.1
2011-01-13 07:56:55 51°13.662 2°55.962 120.7 -999 201 9.1
2011-01-13 07:57:00 51°13.662 2°55.962 120.4 -999 162 9
2011-01-13 07:57:05 51°13.662 2°55.962 120.1 -999 25 9.1
2011-01-13 07:57:10 51°13.662 2°55.962 119.8 -999 175 9.1
2011-01-13 07:57:15 51°13.662 2°55.962 119.5 -999 190 9.1
2011-01-13 07:57:19 51°13.662 2°55.962 119.2 -999 198 9.1
2011-01-13 07:57:25 51°13.662 2°55.962 118.6 0.1 189 9.1
2011-01-13 07:57:30 51°13.661 2°55.962 118.1 0.1 184 9.1
2011-01-13 07:57:35 51°13.661 2°55.962 117.3 0.1 193 9.1
2011-01-13 07:57:39 51°13.661 2°55.961 116.4 0.1 197 -999
2011-01-13 07:57:45 51°13.661 2°55.961 115.5 0.1 191 9.1
2011-01-13 07:57:50 51°13.661 2°55.961 114.8 0.1 184 -999
2011-01-13 07:57:55 51°13.661 2°55.961 113.8 0.1 191 -999
2011-01-13 07:58:00 51°13.661 2°55.962 112.8 0.1 188 -999
2011-01-13 07:58:05 51°13.661 2°55.962 111.9 0.1 195 9.1
2011-01-13 07:58:11 51°13.661 2°55.962 111.1 -999 184 9.1
2011-01-13 07:58:15 51°13.661 2°55.961 110.4 0.1 192 -999
2011-01-13 07:58:21 51°13.661 2°55.961 109.6 -999 201 -999
2011-01-13 07:58:25 51°13.661 2°55.961 108.8 0.1 265 9.1
2011-01-13 07:58:31 51°13.661 2°55.961 108.2 0.2 296 9.1
2011-01-13 07:58:35 51°13.661 2°55.96 107.7 0.6 305 9.1
2011-01-13 07:58:40 51°13.662 2°55.958 107.7 1 301 9
2011-01-13 07:58:45 51°13.663 2°55.954 107.7 2 299 9.1
2011-01-13 07:58:50 51°13.665 2°55.949 108 2.4 300 9
2011-01-13 07:58:55 51°13.667 2°55.943 107.9 2.9 295 9.1
2011-01-13 07:59:00 51°13.669 2°55.936 107.8 3.5 296 -999
2011-01-13 07:59:06 51°13.671 2°55.927 107.5 3.7 293 -999
2011-01-13 07:59:11 51°13.673 2°55.919 107.1 3.9 293 -999
2011-01-13 07:59:15 51°13.675 2°55.912 106.6 4.1 292 -999
2011-01-13 07:59:21 51°13.678 2°55.902 105.9 4.2 293 -999
2011-01-13 07:59:26 51°13.68 2°55.893 105.2 4.3 291 -999
2011-01-13 07:59:31 51°13.682 2°55.883 103.7 4.4 290 -999
2011-01-13 07:59:35 51°13.683 2°55.876 102.2 4.4 289 -999
2011-01-13 07:59:41 51°13.685 2°55.865 100.7 4.4 287 -999
2011-01-13 07:59:46 51°13.687 2°55.856 99.5 4.3 287 -999
2011-01-13 07:59:51 51°13.689 2°55.847 98.1 4.2 286 -999
2011-01-13 07:59:55 51°13.69 2°55.84 96.3 4.1 285 -999
2011-01-13 08:00:00 51°13.691 2°55.831 94.4 4 283 -999
2011-01-13 08:00:06 51°13.692 2°55.821 92.4 3.9 282 -999
2011-01-13 08:00:11 51°13.693 2°55.813 90.3 3.8 280 -999
2011-01-13 08:00:15 51°13.694 2°55.806 88.3 3.7 279 -999
2011-01-13 08:00:20 51°13.695 2°55.798 86.7 3.6 277 -999
2011-01-13 08:00:26 51°13.695 2°55.789 84.9 3.5 276 -999
2011-01-13 08:00:31 51°13.695 2°55.781 82.3 3.4 274 -999
2011-01-13 08:00:35 51°13.695 2°55.775 80.2 3.3 272 -999
2011-01-13 08:00:40 51°13.695 2°55.768 78.5 3.2 271 14.6
2011-01-13 08:00:46 51°13.695 2°55.76 76.2 3 268 -999
2011-01-13 08:00:51 51°13.695 2°55.754 74.3 2.9 266 -999
2011-01-13 08:00:55 51°13.694 2°55.749 72.6 2.8 264 14.7
2011-01-13 08:01:00 51°13.694 2°55.744 70.5 2.5 264 -999
2011-01-13 08:01:05 51°13.694 2°55.74 68.6 1.9 263 15
2011-01-13 08:01:10 51°13.694 2°55.737 66.7 1.2 273 14.9
2011-01-13 08:01:15 51°13.694 2°55.736 63.2 0.6 280 14.9
2011-01-13 08:01:19 51°13.695 2°55.735 58.2 0.5 322 14.8
2011-01-13 08:01:24 51°13.695 2°55.735 51.9 0.5 344 14.8
2011-01-13 08:01:29 51°13.696 2°55.735 46 0.6 353 14.8
2011-01-13 08:01:34 51°13.697 2°55.735 40.7 0.7 355 14.8
2011-01-13 08:01:39 51°13.698 2°55.735 36 0.8 357 14.9
2011-01-13 08:01:44 51°13.7 2°55.735 31.3 0.9 -999 14.8
2011-01-13 08:01:49 51°13.701 2°55.735 26.7 1 358 14.4
2011-01-13 08:01:54 51°13.703 2°55.735 22.2 1.1 2 14.3
2011-01-13 08:01:58 51°13.704 2°55.735 18.1 1.3 356 14.2
2011-01-13 08:02:03 51°13.707 2°55.735 14 1.6 2 14.5
2011-01-13 08:02:08 51°13.709 2°55.734 9.5 1.9 356 14.5
2011-01-13 08:02:13 51°13.712 2°55.734 3.5 2.3 353 14.1
2011-01-13 08:02:18 51°13.716 2°55.733 356.9 2.6 348 14.2
2011-01-13 08:02:23 51°13.72 2°55.731 349.9 3 344 14.3
2011-01-13 08:02:27 51°13.723 2°55.728 343.4 3.3 340 14.3
2011-01-13 08:02:32 51°13.728 2°55.725 338.4 3.7 337 14.5
2011-01-13 08:02:37 51°13.734 2°55.721 335 4.1 335 14.2
2011-01-13 08:02:42 51°13.739 2°55.717 332.9 4.6 334 13.9
2011-01-13 08:02:47 51°13.745 2°55.712 331.3 5 331 13.1
2011-01-13 08:02:52 51°13.752 2°55.706 330.1 5.4 331 13.3
2011-01-13 08:02:57 51°13.759 2°55.698 329.1 6 329 12.6
2011-01-13 08:03:02 51°13.767 2°55.691 328.6 6.5 329 12
2011-01-13 08:03:07 51°13.776 2°55.683 328.4 6.9 329 12.1
2011-01-13 08:03:11 51°13.782 2°55.677 328.4 7.4 329 12.1
2011-01-13 08:03:16 51°13.792 2°55.668 328.6 7.7 329 12.1
2011-01-13 08:03:22 51°13.803 2°55.657 329 8 330 12.1
2011-01-13 08:03:27 51°13.813 2°55.649 330 8.3 331 12
2011-01-13 08:03:31 51°13.822 2°55.642 331.3 8.6 333 12
2011-01-13 08:03:36 51°13.833 2°55.633 331.9 8.8 333 11.9
2011-01-13 08:03:42 51°13.846 2°55.623 332.1 8.9 334 11.9
2011-01-13 08:03:47 51°13.857 2°55.614 332.2 9.1 333 11.9
2011-01-13 08:03:52 51°13.869 2°55.605 332.2 9.3 334 11.7
2011-01-13 08:03:57 51°13.881 2°55.596 332.3 9.4 334 11.9
2011-01-13 08:04:02 51°13.893 2°55.587 332.5 9.5 335 12.1
2011-01-13 08:04:07 51°13.905 2°55.578 333.1 9.6 335 12.2
2011-01-13 08:04:12 51°13.917 2°55.569 333.9 9.7 336 12.2
2011-01-13 08:04:16 51°13.927 2°55.562 334.1 9.8 335 -999
2011-01-13 08:04:22 51°13.942 2°55.551 334 9.8 335 12.1
2011-01-13 08:04:27 51°13.954 2°55.541 333.5 9.9 335 12.3
2011-01-13 08:04:33 51°13.97 2°55.53 333.4 10 335 12
2011-01-13 08:04:37 51°13.98 2°55.522 333.6 10 335 12
2011-01-13 08:04:42 51°13.992 2°55.512 333.3 10 334 12.2
2011-01-13 08:04:47 51°14.005 2°55.503 332.4 10 333 11.9
2011-01-13 08:04:52 51°14.017 2°55.493 331.8 10 333 11.9
2011-01-13 08:04:57 51°14.03 2°55.483 331.8 10 334 11.8
2011-01-13 08:05:02 51°14.042 2°55.474 332.9 10.1 336 -999
2011-01-13 08:05:08 51°14.058 2°55.464 334.3 10.1 337 -999
2011-01-13 08:05:13 51°14.071 2°55.455 335.3 10.1 337 11.8
2011-01-13 08:05:17 51°14.081 2°55.448 335.5 10.2 337 11.8
2011-01-13 08:05:22 51°14.094 2°55.44 336.1 10.2 338 12
2011-01-13 08:05:27 51°14.107 2°55.431 336.4 10.2 337 -999
2011-01-13 08:05:33 51°14.123 2°55.421 336.1 10.2 337 -999
2011-01-13 08:05:38 51°14.136 2°55.412 336.2 10.2 337 -999
2011-01-13 08:05:43 51°14.149 2°55.403 336.5 10.1 337 12
2011-01-13 08:05:49 51°14.165 2°55.392 335.8 10.1 336 -999
2011-01-13 08:05:54 51°14.178 2°55.383 335.1 10.2 336 -999
2011-01-13 08:06:00 51°14.193 2°55.372 334.6 10.3 335 -999
2011-01-13 08:06:05 51°14.206 2°55.362 333.6 10.3 334 -999
2011-01-13 08:06:10 51°14.219 2°55.352 333.4 10.3 334 -999
2011-01-13 08:06:16 51°14.234 2°55.339 332.1 10.4 332 -999
2011-01-13 08:06:21 51°14.247 2°55.328 330.8 10.4 331 -999
2011-01-13 08:06:25 51°14.257 2°55.319 329.8 10.5 331 -999
2011-01-13 08:06:30 51°14.27 2°55.307 328.8 10.5 329 -999
2011-01-13 08:06:36 51°14.284 2°55.292 327.3 10.4 329 -999
2011-01-13 08:06:41 51°14.297 2°55.28 326.6 10.6 328 -999
2011-01-13 08:06:45 51°14.306 2°55.27 326.2 10.4 328 -999
2011-01-13 08:06:51 51°14.321 2°55.255 326.5 10.5 328 -999
2011-01-13 08:06:56 51°14.334 2°55.242 326.5 10.6 328 -999
2011-01-13 08:07:01 51°14.347 2°55.229 326.2 10.8 327 -999
2011-01-13 08:07:05 51°14.357 2°55.219 325.3 11 326 -999
2011-01-13 08:07:10 51°14.37 2°55.205 324.4 11.1 326 11.7
2011-01-13 08:07:15 51°14.382 2°55.191 323.8 11.1 325 -999
2011-01-13 08:07:21 51°14.398 2°55.175 323.6 11.3 327 -999
2011-01-13 08:07:25 51°14.409 2°55.164 324 11.4 327 -999
2011-01-13 08:07:31 51°14.425 2°55.149 324.9 11.4 329 -999
2011-01-13 08:07:36 51°14.439 2°55.137 326.5 11.5 330 -999
2011-01-13 08:07:41 51°14.454 2°55.124 327.6 11.7 331 12.1
2011-01-13 08:07:45 51°14.465 2°55.114 328.9 11.8 330 12.3
2011-01-13 08:07:50 51°14.479 2°55.1 328.3 11.9 328 12.4
2011-01-13 08:07:55 51°14.493 2°55.085 326.7 12.2 326 12.4
2011-01-13 08:08:00 51°14.507 2°55.069 324.5 12.4 325 12.2
2011-01-13 08:08:05 51°14.521 2°55.054 323.1 12.4 324 12.3
2011-01-13 08:08:09 51°14.532 2°55.041 321.7 12.3 325 13.2
2011-01-13 08:08:14 51°14.547 2°55.026 320.4 12.3 327 12.6
2011-01-13 08:08:20 51°14.563 2°55.007 321.2 12.2 325 13.1
2011-01-13 08:08:25 51°14.576 2°54.992 321.4 11.7 324 13.4
2011-01-13 08:08:29 51°14.586 2°54.98 320 11.6 323 13.1
2011-01-13 08:08:34 51°14.599 2°54.965 319.2 11.5 325 13.1
2011-01-13 08:08:39 51°14.612 2°54.95 319.4 11.4 324 12.8
2011-01-13 08:08:44 51°14.624 2°54.936 319.1 11.3 326 13.2
2011-01-13 08:08:49 51°14.637 2°54.922 319.1 11.1 328 13.4
2011-01-13 08:08:53 51°14.648 2°54.912 319.9 11 328 12.7
2011-01-13 08:08:58 51°14.66 2°54.899 320.4 10.8 327 13.3
2011-01-13 08:09:03 51°14.672 2°54.886 319.2 10.8 327 12.2
2011-01-13 08:09:09 51°14.688 2°54.87 319.2 10.8 327 13.1
2011-01-13 08:09:13 51°14.698 2°54.86 319.4 10.8 327 13.4
2011-01-13 08:09:17 51°14.708 2°54.849 318.2 10.9 327 12.5
2011-01-13 08:09:22 51°14.721 2°54.836 318.7 11.1 329 -999
2011-01-13 08:09:29 51°14.739 2°54.817 319.1 11.3 326 12.5
2011-01-13 08:09:34 51°14.753 2°54.803 319.3 11.6 328 -999
2011-01-13 08:09:38 51°14.764 2°54.791 318.4 11.7 325 12.6
2011-01-13 08:09:44 51°14.78 2°54.774 317.7 11.9 327 13
2011-01-13 08:09:49 51°14.794 2°54.758 318 12.3 324 -999
2011-01-13 08:09:54 51°14.808 2°54.741 317 12.3 324 12.4
2011-01-13 08:09:59 51°14.822 2°54.725 316.5 12.4 323 12.9
2011-01-13 08:10:05 51°14.838 2°54.705 316.1 12.2 323 -999
2011-01-13 08:10:10 51°14.852 2°54.689 315.7 12.2 323 4.9
2011-01-13 08:10:15 51°14.865 2°54.673 316.5 12.4 323 54.4
2011-01-13 08:10:21 51°14.88 2°54.651 315.7 12.4 319 -999
2011-01-13 08:10:26 51°14.894 2°54.635 314.6 12.6 323 12.7
2011-01-13 08:10:30 51°14.905 2°54.621 315.6 12.7 322 -999
2011-01-13 08:10:35 51°14.92 2°54.605 316 12.7 326 12.2
2011-01-13 08:10:40 51°14.934 2°54.588 316.5 12.7 322 13
2011-01-13 08:10:46 51°14.95 2°54.568 315.9 12.6 322 13.3
2011-01-13 08:10:50 51°14.961 2°54.554 316 12.5 323 12.5
2011-01-13 08:10:55 51°14.975 2°54.537 316 12.5 323 12.1
2011-01-13 08:11:00 51°14.989 2°54.521 315.8 12.6 324 11.9
2011-01-13 08:11:05 51°15.003 2°54.504 316.4 12.8 324 12
2011-01-13 08:11:10 51°15.018 2°54.487 316.3 12.9 324 11.8
2011-01-13 08:11:14 51°15.029 2°54.474 316.4 12.8 323 12.1
2011-01-13 08:11:19 51°15.044 2°54.458 316.5 12.8 325 12.5
2011-01-13 08:11:24 51°15.058 2°54.441 316.5 12.8 323 12.1
2011-01-13 08:11:29 51°15.072 2°54.424 316.4 12.8 324 12.1
2011-01-13 08:11:34 51°15.086 2°54.407 316.9 12.8 324 11.6
2011-01-13 08:11:38 51°15.097 2°54.393 316.1 12.7 321 11.9
2011-01-13 08:11:43 51°15.111 2°54.376 314.8 12.7 324 12.1
2011-01-13 08:11:49 51°15.128 2°54.356 316.3 12.7 323 11.9
2011-01-13 08:11:54 51°15.141 2°54.338 316.1 12.5 320 12.7
2011-01-13 08:11:58 51°15.152 2°54.324 315 12.4 322 11.6
2011-01-13 08:12:03 51°15.166 2°54.307 315.8 12.5 322 11.8
2011-01-13 08:12:07 51°15.177 2°54.293 315.2 12.5 322 12.4
2011-01-13 08:12:13 51°15.193 2°54.272 315.6 12.6 322 12.6
2011-01-13 08:12:18 51°15.207 2°54.255 316.4 12.7 321 12.2
2011-01-13 08:12:22 51°15.218 2°54.241 316.2 12.8 321 12.2
2011-01-13 08:12:27 51°15.233 2°54.224 316.4 12.9 324 12.5
2011-01-13 08:12:32 51°15.246 2°54.206 316.8 12.9 321 12.3
2011-01-13 08:12:37 51°15.261 2°54.189 317.1 12.8 324 12.3
2011-01-13 08:12:42 51°15.275 2°54.171 316.3 12.7 321 13.7
2011-01-13 08:12:46 51°15.285 2°54.157 315.4 12.6 322 13
2011-01-13 08:12:52 51°15.303 2°54.137 317.3 12.7 323 12.7
2011-01-13 08:12:57 51°15.316 2°54.12 316.2 12.8 323 12.5
2011-01-13 08:13:03 51°15.333 2°54.101 316.7 12.6 324 13.6
2011-01-13 08:13:07 51°15.344 2°54.088 316.5 12.3 325 12.4
2011-01-13 08:13:12 51°15.358 2°54.071 317.2 12.4 322 12.9
2011-01-13 08:13:17 51°15.371 2°54.055 316.1 12.2 323 -999
2011-01-13 08:13:22 51°15.385 2°54.04 317.2 12 324 12.5
2011-01-13 08:13:27 51°15.398 2°54.023 317 12.1 321 13.1
2011-01-13 08:13:31 51°15.409 2°54.01 315.7 12.2 323 13.5
2011-01-13 08:13:37 51°15.425 2°53.99 316.9 12.4 322 12.8
2011-01-13 08:13:42 51°15.438 2°53.974 316.5 12.1 323 12.9
2011-01-13 08:13:47 51°15.452 2°53.956 317.7 12.4 322 13.2
2011-01-13 08:13:52 51°15.465 2°53.939 317.2 12.4 321 12.8
2011-01-13 08:13:57 51°15.479 2°53.922 315.1 12.5 321 13.1
2011-01-13 08:14:02 51°15.492 2°53.904 315.8 12.6 321 13.3
2011-01-13 08:14:07 51°15.506 2°53.887 317.3 12.7 322 13.1
2011-01-13 08:14:12 51°15.519 2°53.87 315.3 12.5 320 12.5
2011-01-13 08:14:17 51°15.533 2°53.852 314.7 12.4 321 13.5
2011-01-13 08:14:22 51°15.546 2°53.834 315.8 12.6 319 13.3
2011-01-13 08:14:27 51°15.559 2°53.816 314.5 12.5 319 13
2011-01-13 08:14:31 51°15.57 2°53.801 314.1 12.5 320 12.9
2011-01-13 08:14:37 51°15.586 2°53.78 314.3 12.6 319 13.4
2011-01-13 08:14:42 51°15.599 2°53.762 314.4 12.5 320 12.5
2011-01-13 08:14:47 51°15.612 2°53.744 315.2 12.6 320 13.6
2011-01-13 08:14:52 51°15.626 2°53.726 315.1 12.6 320 13.7
2011-01-13 08:14:57 51°15.639 2°53.708 314.6 12.6 320 14.6
2011-01-13 08:15:02 51°15.653 2°53.69 315.3 12.7 321 14
2011-01-13 08:15:07 51°15.666 2°53.672 315.2 12.5 319 13.9
2011-01-13 08:15:12 51°15.68 2°53.654 313.8 12.6 321 14.3
2011-01-13 08:15:17 51°15.693 2°53.636 315.4 12.7 320 13.9
2011-01-13 08:15:22 51°15.706 2°53.616 313.1 12.7 316 14.2
2011-01-13 08:15:27 51°15.719 2°53.599 312.9 12.6 320 13.5
2011-01-13 08:15:32 51°15.732 2°53.579 313.1 12.7 317 14.1
2011-01-13 08:15:37 51°15.745 2°53.563 313 12.2 322 12.3
2011-01-13 08:15:42 51°15.759 2°53.546 315.6 12.3 323 -999
2011-01-13 08:15:47 51°15.773 2°53.53 316.5 12.4 323 13.7
2011-01-13 08:15:52 51°15.787 2°53.514 317.4 12.6 325 14
2011-01-13 08:15:57 51°15.801 2°53.499 318.8 12.6 327 13.4
2011-01-13 08:16:02 51°15.816 2°53.482 321.1 12.7 324 13.5
2011-01-13 08:16:07 51°15.831 2°53.467 320.9 12.9 327 13.8
2011-01-13 08:16:12 51°15.846 2°53.453 322.4 12.9 330 13.8
2011-01-13 08:16:17 51°15.862 2°53.438 324.5 12.9 330 13.7
2011-01-13 08:16:22 51°15.878 2°53.424 323.9 13 331 13.9
2011-01-13 08:16:27 51°15.894 2°53.41 326 13 333 14
2011-01-13 08:16:32 51°15.909 2°53.395 325.4 12.9 328 13.7
2011-01-13 08:16:37 51°15.925 2°53.384 327.6 13.1 336 14.1
2011-01-13 08:16:42 51°15.941 2°53.37 327.9 13 332 13.9
2011-01-13 08:16:47 51°15.957 2°53.358 327.3 13 334 13.9
2011-01-13 08:16:52 51°15.973 2°53.344 327.4 12.9 333 12.7
2011-01-13 08:16:57 51°15.989 2°53.333 327.5 12.8 336 13.7
2011-01-13 08:17:02 51°16.005 2°53.318 327.5 12.9 330 13.9
2011-01-13 08:17:07 51°16.021 2°53.305 327.4 13 333 13.7
2011-01-13 08:17:11 51°16.033 2°53.295 327 13 332 12.9
2011-01-13 08:17:17 51°16.053 2°53.281 328.5 13.1 334 13.9
2011-01-13 08:17:22 51°16.069 2°53.268 328.9 13 333 13.9
2011-01-13 08:17:27 51°16.086 2°53.256 328.4 12.8 336 13.2
2011-01-13 08:17:32 51°16.101 2°53.243 328.2 12.7 333 13.9
2011-01-13 08:17:37 51°16.118 2°53.232 330.1 12.9 337 13.8
2011-01-13 08:17:42 51°16.134 2°53.218 329.5 12.9 332 13.4
2011-01-13 08:17:47 51°16.15 2°53.205 326.7 12.8 332 13.3
2011-01-13 08:17:52 51°16.166 2°53.193 329 12.8 335 13.6
2011-01-13 08:17:57 51°16.182 2°53.181 327.9 12.9 335 14.4
2011-01-13 08:18:02 51°16.199 2°53.17 329.6 13 336 13.9
2011-01-13 08:18:07 51°16.215 2°53.157 329.2 12.9 334 14.1
2011-01-13 08:18:12 51°16.231 2°53.144 327.9 13 335 13.7
2011-01-13 08:18:17 51°16.247 2°53.132 328.2 12.9 334 12.6
2011-01-13 08:18:22 51°16.263 2°53.12 328.7 12.8 335 13.5
2011-01-13 08:18:27 51°16.279 2°53.108 328 12.8 334 14.3
2011-01-13 08:18:32 51°16.295 2°53.095 327.5 13 334 13.8
2011-01-13 08:18:37 51°16.311 2°53.082 328.2 13 334 13.4
2011-01-13 08:18:42 51°16.327 2°53.07 327.6 12.9 335 12.6
2011-01-13 08:18:47 51°16.343 2°53.058 328.6 12.7 335 12.1
2011-01-13 08:18:52 51°16.36 2°53.047 329.1 12.8 336 13.7
2011-01-13 08:18:57 51°16.376 2°53.033 328.7 12.8 332 13.7
2011-01-13 08:19:02 51°16.392 2°53.021 327 12.8 334 14
2011-01-13 08:19:07 51°16.408 2°53.01 327.3 12.9 335 12.8
2011-01-13 08:19:12 51°16.424 2°52.999 329.5 12.6 337 13.4
2011-01-13 08:19:17 51°16.44 2°52.986 328.8 12.7 334 14.3
2011-01-13 08:19:22 51°16.455 2°52.974 328.4 12.7 334 13.3
2011-01-13 08:19:27 51°16.471 2°52.96 327.9 12.6 331 12.8
2011-01-13 08:19:32 51°16.487 2°52.949 327.4 12.7 334 13.9
2011-01-13 08:19:36 51°16.499 2°52.938 327.3 12.7 333 14.2
2011-01-13 08:19:42 51°16.519 2°52.923 327.6 12.7 333 13.7
2011-01-13 08:19:47 51°16.534 2°52.91 326.8 12.7 332 13.3
2011-01-13 08:19:52 51°16.551 2°52.898 327.9 12.9 335 13.9
2011-01-13 08:19:57 51°16.567 2°52.885 328.3 12.9 333 14
2011-01-13 08:20:02 51°16.583 2°52.873 328.5 12.9 336 14.1
2011-01-13 08:20:07 51°16.599 2°52.86 327.2 13 333 13.6
2011-01-13 08:20:12 51°16.616 2°52.848 327.2 13 336 13
2011-01-13 08:20:17 51°16.632 2°52.836 328.8 13 335 13.1
2011-01-13 08:20:22 51°16.647 2°52.822 327.1 13 333 13.1
2011-01-13 08:20:27 51°16.664 2°52.81 328.2 13 335 12.3
2011-01-13 08:20:32 51°16.68 2°52.797 327.9 12.9 333 12.9
2011-01-13 08:20:37 51°16.696 2°52.785 328.9 13 334 12.7
2011-01-13 08:20:42 51°16.712 2°52.771 327.5 12.9 332 12.2
2011-01-13 08:20:47 51°16.729 2°52.76 327.4 13 337 13.4
2011-01-13 08:20:52 51°16.744 2°52.747 326.7 13 333 11.9
2011-01-13 08:20:57 51°16.76 2°52.734 328.4 12.9 334 11.2
2011-01-13 08:21:02 51°16.775 2°52.721 327 12.6 332 10.9
2011-01-13 08:21:07 51°16.791 2°52.707 328 12.8 332 11.7
2011-01-13 08:21:12 51°16.807 2°52.694 325.8 12.9 331 11.8
2011-01-13 08:21:18 51°16.826 2°52.678 326.4 12.8 333 11
2011-01-13 08:21:22 51°16.839 2°52.667 327.2 12.8 333 10.4
2011-01-13 08:21:28 51°16.858 2°52.651 327.4 12.7 332 11.2
2011-01-13 08:21:32 51°16.87 2°52.641 326.6 12.8 333 12.1
2011-01-13 08:21:37 51°16.886 2°52.628 327 12.7 331 10.9
2011-01-13 08:21:42 51°16.902 2°52.616 326.2 12.8 333 11.4
2011-01-13 08:21:47 51°16.918 2°52.602 327.9 12.8 332 11.3
2011-01-13 08:21:52 51°16.934 2°52.589 326.3 13 332 11.4
2011-01-13 08:21:57 51°16.95 2°52.575 326.8 12.9 332 11.9
2011-01-13 08:22:02 51°16.967 2°52.564 328.4 13.1 336 11.8
2011-01-13 08:22:07 51°16.983 2°52.552 330.3 13.1 336 10.8
2011-01-13 08:22:12 51°17 2°52.541 332.4 13.2 338 10.9
2011-01-13 08:22:16 51°17.014 2°52.534 333.7 13.3 341 11.6
2011-01-13 08:22:22 51°17.034 2°52.52 332.2 12.9 337 10.8
2011-01-13 08:22:27 51°17.052 2°52.512 334.7 13.2 343 11.2
2011-01-13 08:22:32 51°17.069 2°52.501 335.3 13 338 10.7
2011-01-13 08:22:36 51°17.083 2°52.495 335.9 13 344 12.1
2011-01-13 08:22:42 51°17.103 2°52.485 336.2 12.7 341 12.6
2011-01-13 08:22:47 51°17.121 2°52.476 336.2 13.1 342 12.3
2011-01-13 08:22:52 51°17.136 2°52.463 333.1 12.9 333 11.5
2011-01-13 08:22:57 51°17.153 2°52.454 332 12.8 340 12.1
2011-01-13 08:23:02 51°17.17 2°52.443 334.1 13.1 337 12.1
2011-01-13 08:23:07 51°17.187 2°52.434 334.2 13.1 341 11.7
2011-01-13 08:23:12 51°17.205 2°52.424 334.9 13.1 340 11.9
2011-01-13 08:23:16 51°17.218 2°52.416 335.9 13.3 341 12.2
2011-01-13 08:23:22 51°17.239 2°52.405 335.3 13.4 342 12.5
2011-01-13 08:23:27 51°17.257 2°52.397 336.9 13.4 344 12.6
2011-01-13 08:23:32 51°17.275 2°52.388 338.1 13.4 343 11.8
2011-01-13 08:23:37 51°17.292 2°52.379 338.6 13.3 343 11.7
2011-01-13 08:23:42 51°17.31 2°52.373 339.3 13.4 350 11.9
2011-01-13 08:23:47 51°17.328 2°52.366 342.6 13.4 348 12.2
2011-01-13 08:23:52 51°17.346 2°52.358 340.5 13.3 343 11.6
2011-01-13 08:23:57 51°17.365 2°52.353 342.5 13.6 350 11.9
2011-01-13 08:24:02 51°17.382 2°52.344 341.9 13.1 344 11.7
2011-01-13 08:24:07 51°17.4 2°52.341 342.7 13.2 353 12
2011-01-13 08:24:12 51°17.418 2°52.333 344.8 13.2 346 12
2011-01-13 08:24:16 51°17.432 2°52.328 341.9 13.3 347 11.9
2011-01-13 08:24:22 51°17.454 2°52.319 341.4 13.3 349 11.3
2011-01-13 08:24:27 51°17.472 2°52.314 343.8 13.4 345 12
2011-01-13 08:24:32 51°17.49 2°52.307 342.2 13.3 346 12.8
2011-01-13 08:24:37 51°17.508 2°52.301 342.7 13.4 348 11.9
2011-01-13 08:24:42 51°17.526 2°52.297 345.4 13.2 350 11.6
2011-01-13 08:24:47 51°17.543 2°52.289 342.2 13 345 12.1
2011-01-13 08:24:52 51°17.562 2°52.285 344.2 13.2 351 11.7
2011-01-13 08:24:57 51°17.58 2°52.277 345.2 13.2 345 12.1
2011-01-13 08:25:02 51°17.598 2°52.273 344.7 13.2 352 12.8
2011-01-13 08:25:07 51°17.616 2°52.267 343.1 13.5 349 13.2
2011-01-13 08:25:12 51°17.634 2°52.26 342.8 13.4 347 12.5
2011-01-13 08:25:17 51°17.652 2°52.254 345.2 13.5 350 12.4
2011-01-13 08:25:22 51°17.67 2°52.247 342.9 13.3 347 12.6
2011-01-13 08:25:27 51°17.688 2°52.243 343.7 13.2 351 12.5
2011-01-13 08:25:32 51°17.707 2°52.236 345.6 13.3 347 12.1
2011-01-13 08:25:37 51°17.725 2°52.23 344.3 13.4 345 12.7
2011-01-13 08:25:42 51°17.743 2°52.226 344.7 13.3 354 12.2
2011-01-13 08:25:47 51°17.761 2°52.219 348.4 13.3 343 13.8
2011-01-13 08:25:52 51°17.778 2°52.21 338 12.9 340 12.2
2011-01-13 08:25:57 51°17.796 2°52.203 341 13.4 346 12
2011-01-13 08:26:02 51°17.814 2°52.196 340.4 13.3 348 12.3
2011-01-13 08:26:07 51°17.832 2°52.191 342.6 13.1 348 11.9
2011-01-13 08:26:12 51°17.851 2°52.19 347.9 13.3 356 12.5
2011-01-13 08:26:17 51°17.869 2°52.185 349.9 13.6 352 13.2
2011-01-13 08:26:22 51°17.887 2°52.183 348.5 13 357 13.2
2011-01-13 08:26:27 51°17.906 2°52.181 352.3 13.6 358 13.1
2011-01-13 08:26:32 51°17.925 2°52.18 353.9 13.8 357 12.4
2011-01-13 08:26:37 51°17.944 2°52.183 356.4 13.5 4 13.2
2011-01-13 08:26:42 51°17.962 2°52.182 358.5 13.3 -999 12.8
2011-01-13 08:26:47 51°17.981 2°52.185 358.6 13.5 5 12.8
2011-01-13 08:26:52 51°18 2°52.185 358 13.8 1 13.2
2011-01-13 08:26:56 51°18.015 2°52.188 0.4 13.5 8 12.5
2011-01-13 08:27:02 51°18.038 2°52.191 3.8 13.7 1 13.3
2011-01-13 08:27:07 51°18.056 2°52.189 357.1 13.1 359 12.8
2011-01-13 08:27:12 51°18.075 2°52.193 358.6 13.6 7 12.5
2011-01-13 08:27:16 51°18.09 2°52.193 359.2 13.9 359 12.9
2011-01-13 08:27:22 51°18.113 2°52.198 1.4 13.6 9 13.1
2011-01-13 08:27:27 51°18.131 2°52.199 2.4 13.4 2 12.3
2011-01-13 08:27:32 51°18.15 2°52.203 2.1 13.6 7 12.7
2011-01-13 08:27:36 51°18.165 2°52.206 2.4 13.4 7 12.7
2011-01-13 08:27:42 51°18.187 2°52.212 5.3 13.5 10 12.6
2011-01-13 08:27:47 51°18.206 2°52.213 4.8 13.6 2 13.5
2011-01-13 08:27:52 51°18.224 2°52.215 357.9 13.2 2 13.3
2011-01-13 08:27:57 51°18.243 2°52.217 1.7 13.4 6 13.2
2011-01-13 08:28:02 51°18.261 2°52.219 1.4 13.6 5 12.6
2011-01-13 08:28:07 51°18.281 2°52.223 2 13.8 8 13.4
2011-01-13 08:28:12 51°18.299 2°52.229 3.6 13.2 10 13.6
2011-01-13 08:28:16 51°18.314 2°52.231 6.3 13.7 7 13.8
2011-01-13 08:28:22 51°18.336 2°52.232 0.2 13.4 1 13.1
2011-01-13 08:28:27 51°18.355 2°52.235 0.1 13.5 5 13
2011-01-13 08:28:32 51°18.374 2°52.238 2.4 13.8 5 12.8
2011-01-13 08:28:36 51°18.389 2°52.241 3.6 13.9 6 12.4
2011-01-13 08:28:42 51°18.412 2°52.242 -999 13.4 2 12.1
2011-01-13 08:28:47 51°18.43 2°52.248 2.9 13.5 11 12.9
2011-01-13 08:28:52 51°18.449 2°52.251 2.3 13.8 6 13.7
2011-01-13 08:28:56 51°18.464 2°52.251 0.4 13.7 1 13.2
2011-01-13 08:29:02 51°18.487 2°52.257 1.5 13.6 13 12.8
2011-01-13 08:29:07 51°18.506 2°52.257 4.7 13.5 356 12.9
2011-01-13 08:29:12 51°18.524 2°52.259 358.2 13.2 2 13
2011-01-13 08:29:17 51°18.543 2°52.26 359.7 13.6 3 13.4
2011-01-13 08:29:22 51°18.562 2°52.262 -999 13.6 4 12.9
2011-01-13 08:29:27 51°18.581 2°52.267 3 13.8 7 13.3
2011-01-13 08:29:32 51°18.6 2°52.268 359.9 13.8 1 13.5
2011-01-13 08:29:37 51°18.619 2°52.268 358.9 13.6 2 13.5
2011-01-13 08:29:42 51°18.637 2°52.273 1.5 13.5 6 13.6
2011-01-13 08:29:47 51°18.656 2°52.274 0.6 13.4 4 14
2011-01-13 08:29:52 51°18.675 2°52.276 358.2 13.6 2 14
2011-01-13 08:29:57 51°18.694 2°52.278 -999 13.7 4 14
2011-01-13 08:30:02 51°18.713 2°52.28 0.5 13.3 3 13.7
2011-01-13 08:30:07 51°18.731 2°52.285 3 13.4 9 14.1
2011-01-13 08:30:12 51°18.75 2°52.287 1.7 13.7 4 13.7
2011-01-13 08:30:17 51°18.769 2°52.288 1.1 13.9 3 13.6
2011-01-13 08:30:22 51°18.788 2°52.292 1.8 13.5 6 13.9
2011-01-13 08:30:27 51°18.807 2°52.296 2.6 13.8 8 14.6
2011-01-13 08:30:32 51°18.826 2°52.298 3.6 13.6 5 14.6
2011-01-13 08:30:37 51°18.845 2°52.304 3.7 14 11 15.4
2011-01-13 08:30:42 51°18.864 2°52.302 2.1 14.1 -999 14.5
2011-01-13 08:30:47 51°18.883 2°52.307 358 13.6 7 14.7
2011-01-13 08:30:52 51°18.902 2°52.306 0.5 13.9 2 14.9
2011-01-13 08:30:56 51°18.917 2°52.31 0.2 13.6 7 14.8
2011-01-13 08:31:02 51°18.94 2°52.314 3.4 14 5 15.1
2011-01-13 08:31:07 51°18.959 2°52.314 0.9 13.6 -999 15.1
2011-01-13 08:31:12 51°18.978 2°52.318 359.8 13.5 6 14.8
2011-01-13 08:31:17 51°18.997 2°52.32 3.5 13.9 4 14.3
2011-01-13 08:31:22 51°19.015 2°52.322 0.2 13.7 4 14.7
2011-01-13 08:31:27 51°19.034 2°52.327 1.8 13.8 8 15.4
2011-01-13 08:31:32 51°19.053 2°52.327 1.1 13.6 1 15.3
2011-01-13 08:31:37 51°19.072 2°52.329 358.9 13.5 3 16.2
2011-01-13 08:31:42 51°19.091 2°52.33 359.2 13.4 1 15.2
2011-01-13 08:31:47 51°19.11 2°52.333 2.5 13.8 4 14.9
2011-01-13 08:31:52 51°19.129 2°52.333 0.1 13.8 359 15
2011-01-13 08:31:57 51°19.147 2°52.338 358.8 13.3 8 15.5
2011-01-13 08:32:02 51°19.166 2°52.341 2.1 13.9 6 16.8
2011-01-13 08:32:07 51°19.185 2°52.339 1 13.6 358 15.7
2011-01-13 08:32:12 51°19.203 2°52.341 357.9 13.6 2 15.4
2011-01-13 08:32:16 51°19.218 2°52.341 358.3 13.7 -999 15.3
2011-01-13 08:32:22 51°19.241 2°52.343 357.9 13.6 3 15.9
2011-01-13 08:32:27 51°19.26 2°52.341 356.3 13.4 356 16.1
2011-01-13 08:32:32 51°19.279 2°52.342 356.9 13.8 2 16.2
2011-01-13 08:32:37 51°19.298 2°52.339 354.9 13.6 355 15.9
2011-01-13 08:32:42 51°19.316 2°52.341 355.9 13.2 2 16.3
2011-01-13 08:32:47 51°19.335 2°52.341 358.9 13.6 1 16.4
2011-01-13 08:32:52 51°19.354 2°52.338 354 13.5 355 16.6
2011-01-13 08:32:57 51°19.373 2°52.337 354 13.6 358 16.9
2011-01-13 08:33:02 51°19.391 2°52.336 353.8 13.5 -999 16.8
2011-01-13 08:33:07 51°19.411 2°52.335 356.3 13.6 355 17.6
2011-01-13 08:33:12 51°19.429 2°52.332 349.3 13.3 352 16.4
2011-01-13 08:33:17 51°19.448 2°52.331 356.5 14 1 17.1
2011-01-13 08:33:22 51°19.466 2°52.327 352 13.2 352 16.1
2011-01-13 08:33:27 51°19.485 2°52.328 351.7 13.3 -999 17.2
2011-01-13 08:33:32 51°19.504 2°52.323 353.9 13.5 351 17.1
2011-01-13 08:33:37 51°19.522 2°52.323 352.9 13.4 359 16.7
2011-01-13 08:33:42 51°19.541 2°52.322 353.7 13.7 358 16.5
2011-01-13 08:33:47 51°19.56 2°52.32 354.3 13.6 356 16.8
2011-01-13 08:33:52 51°19.579 2°52.321 355.6 13.7 -999 16.9
2011-01-13 08:33:57 51°19.598 2°52.32 356.5 13.7 358 16.7
2011-01-13 08:34:02 51°19.617 2°52.322 356.5 13.7 5 17.4
2011-01-13 08:34:07 51°19.636 2°52.322 358.8 13.8 359 17.7
2011-01-13 08:34:12 51°19.655 2°52.323 355.7 13.5 359 17.2
2011-01-13 08:34:16 51°19.67 2°52.323 359.2 13.8 -999 17.4
2011-01-13 08:34:22 51°19.692 2°52.318 352.8 13.4 353 17
2011-01-13 08:34:27 51°19.711 2°52.318 351.3 13.6 -999 17.5
2011-01-13 08:34:32 51°19.73 2°52.316 352.8 13.5 355 17.4
2011-01-13 08:34:37 51°19.749 2°52.32 356 13.4 7 17.9
2011-01-13 08:34:42 51°19.767 2°52.314 357.2 13.6 349 18.3
2011-01-13 08:34:47 51°19.785 2°52.313 348.4 13 356 17.4
2011-01-13 08:34:52 51°19.804 2°52.312 350.9 13.4 359 18.1
2011-01-13 08:34:57 51°19.822 2°52.309 350.3 13 356 -999
2011-01-13 08:35:03 51°19.845 2°52.312 357.5 13.7 5 17.4
2011-01-13 08:35:07 51°19.859 2°52.306 353.7 13.4 346 17.7
2011-01-13 08:35:12 51°19.877 2°52.305 347.7 12.9 356 18
2011-01-13 08:35:17 51°19.895 2°52.302 350.7 13.2 355 18.3
2011-01-13 08:35:22 51°19.914 2°52.302 352.7 13.6 2 17.5
2011-01-13 08:35:27 51°19.933 2°52.3 356.2 13.4 355 17.4
2011-01-13 08:35:32 51°19.951 2°52.299 351.6 13 355 17.6
2011-01-13 08:35:36 51°19.966 2°52.299 354.5 13.4 359 17.8
2011-01-13 08:35:42 51°19.988 2°52.298 354.7 13.6 -999 18
2011-01-13 08:35:47 51°20.007 2°52.297 355 13.3 358 18.3
2011-01-13 08:35:52 51°20.025 2°52.3 356.9 13.4 5 18.3
2011-01-13 08:35:56 51°20.041 2°52.297 359.2 13.8 356 17.6
2011-01-13 08:36:02 51°20.062 2°52.294 352.4 13.1 355 17.6
2011-01-13 08:36:07 51°20.08 2°52.292 349.4 13.2 358 17.4
2011-01-13 08:36:12 51°20.1 2°52.29 354.4 13.8 358 18.1
2011-01-13 08:36:16 51°20.114 2°52.286 350.2 13.2 351 17.7
2011-01-13 08:36:22 51°20.137 2°52.287 354.2 13.6 3 18.7
2011-01-13 08:36:27 51°20.155 2°52.284 352.3 13.1 355 -999
2011-01-13 08:36:32 51°20.174 2°52.286 356.4 13.3 1 17.4
2011-01-13 08:36:37 51°20.192 2°52.281 354.4 13.2 352 16.9
2011-01-13 08:36:42 51°20.211 2°52.281 353.2 13.5 356 17.4
2011-01-13 08:36:47 51°20.229 2°52.275 350 13.2 348 17.2
2011-01-13 08:36:52 51°20.247 2°52.275 349.6 13.2 358 16.8
2011-01-13 08:36:57 51°20.266 2°52.27 351.4 13.6 353 17.4
2011-01-13 08:37:02 51°20.284 2°52.266 348.7 13.1 352 17.4
2011-01-13 08:37:07 51°20.302 2°52.263 349.4 13.4 355 17.9
2011-01-13 08:37:12 51°20.32 2°52.26 349.3 13.3 354 -999
2011-01-13 08:37:17 51°20.337 2°52.255 347.4 12.5 352 17.1
2011-01-13 08:37:22 51°20.355 2°52.255 351 12.8 -999 17.8
2011-01-13 08:37:27 51°20.372 2°52.249 348.9 12.6 349 16.9
2011-01-13 08:37:32 51°20.389 2°52.245 346.2 12.2 351 16.7
2011-01-13 08:37:36 51°20.403 2°52.243 349.6 12.4 355 16.5
2011-01-13 08:37:42 51°20.422 2°52.235 346.7 12.2 346 16.1
2011-01-13 08:37:47 51°20.439 2°52.232 345.6 12.2 351 15.6
2011-01-13 08:37:52 51°20.455 2°52.226 345.4 12 347 15.6
2011-01-13 08:37:57 51°20.471 2°52.223 346.2 11.9 351 16.3
2011-01-13 08:38:02 51°20.487 2°52.215 344.6 11.9 345 17.3
2011-01-13 08:38:07 51°20.502 2°52.206 339.5 11.7 340 16.9
2011-01-13 08:38:12 51°20.517 2°52.195 333.5 11.5 335 17.1
2011-01-13 08:38:17 51°20.531 2°52.185 330.5 11.5 336 16.3
2011-01-13 08:38:22 51°20.545 2°52.174 328.8 11.3 334 16.5
2011-01-13 08:38:27 51°20.558 2°52.16 327 11.2 330 16
2011-01-13 08:38:32 51°20.572 2°52.147 324.9 11.3 329 15.7
2011-01-13 08:38:37 51°20.586 2°52.135 324.4 11.4 331 15.4
2011-01-13 08:38:42 51°20.599 2°52.121 322.7 11.3 327 15.5
2011-01-13 08:38:47 51°20.612 2°52.107 322.2 11.4 327 15.1
2011-01-13 08:38:52 51°20.626 2°52.094 321.5 11.4 328 14.9
2011-01-13 08:38:57 51°20.639 2°52.079 320.2 11.4 324 14.8
2011-01-13 08:39:02 51°20.652 2°52.066 320.8 11.3 326 14.7
2011-01-13 08:39:07 51°20.665 2°52.053 319.4 11.1 326 15.6
2011-01-13 08:39:12 51°20.678 2°52.038 320.7 11.4 327 15.6
2011-01-13 08:39:17 51°20.692 2°52.025 320.1 11.5 326 15.4
2011-01-13 08:39:22 51°20.704 2°52.009 319.3 11.6 323 15.2
2011-01-13 08:39:27 51°20.718 2°51.995 320.8 11.6 324 15.5
2011-01-13 08:39:32 51°20.731 2°51.981 320.2 11.6 327 15.5
2011-01-13 08:39:36 51°20.741 2°51.968 318.4 11.7 324 16.2
2011-01-13 08:39:42 51°20.757 2°51.95 318.7 11.8 323 15.8
2011-01-13 08:39:47 51°20.771 2°51.936 318.8 11.7 326 15.5
2011-01-13 08:39:52 51°20.784 2°51.922 319.2 11.6 325 -999
2011-01-13 08:39:57 51°20.797 2°51.907 319.6 11.5 326 16
2011-01-13 08:40:02 51°20.811 2°51.892 320.2 11.7 325 16.1
2011-01-13 08:40:07 51°20.824 2°51.877 319.2 11.8 324 16.9
2011-01-13 08:40:12 51°20.837 2°51.861 319 11.9 324 16.1
2011-01-13 08:40:17 51°20.851 2°51.848 320 11.8 328 16.5
2011-01-13 08:40:22 51°20.864 2°51.833 319.5 11.6 324 16.9
2011-01-13 08:40:27 51°20.878 2°51.818 319.4 11.8 324 17.5
2011-01-13 08:40:32 51°20.891 2°51.803 319.5 12 325 16.5
2011-01-13 08:40:36 51°20.903 2°51.793 320.7 11.7 328 17.2
2011-01-13 08:40:42 51°20.919 2°51.775 321.2 11.7 327 18
2011-01-13 08:40:47 51°20.932 2°51.759 320 11.8 322 18.3
2011-01-13 08:40:52 51°20.946 2°51.746 318.8 11.9 328 18.5
2011-01-13 08:40:56 51°20.956 2°51.733 319.3 11.8 324 18.7
2011-01-13 08:41:02 51°20.973 2°51.715 319.7 11.8 326 19.2
2011-01-13 08:41:07 51°20.987 2°51.7 319.9 12.1 326 19.9
2011-01-13 08:41:12 51°21.001 2°51.686 319.1 11.9 328 -999
2011-01-13 08:41:17 51°21.015 2°51.674 321.2 11.3 329 -999
2011-01-13 08:41:23 51°21.03 2°51.657 321 11.4 325 -999
2011-01-13 08:41:28 51°21.042 2°51.642 318.6 11.5 324 20.2
2011-01-13 08:41:33 51°21.056 2°51.628 317.9 11.6 327 19.8
2011-01-13 08:41:38 51°21.07 2°51.614 320.9 11.8 328 20.6
2011-01-13 08:41:43 51°21.083 2°51.601 318.7 11.4 328 -999
2011-01-13 08:41:48 51°21.097 2°51.589 321.9 11.5 331 20
2011-01-13 08:41:52 51°21.108 2°51.578 322.2 11.3 327 20.5
2011-01-13 08:41:58 51°21.125 2°51.563 322.7 11.6 329 21.6
2011-01-13 08:42:03 51°21.138 2°51.548 321.6 11.7 326 21.3
2011-01-13 08:42:07 51°21.149 2°51.538 321.2 11.9 331 21.8
2011-01-13 08:42:12 51°21.163 2°51.523 322.4 12 328 21.7
2011-01-13 08:42:17 51°21.177 2°51.51 320.4 11.7 329 21.3
2011-01-13 08:42:22 51°21.19 2°51.497 323 11.5 329 21.6
2011-01-13 08:42:27 51°21.204 2°51.484 322.6 11.5 329 22.9
2011-01-13 08:42:32 51°21.218 2°51.471 320.9 11.2 328 23.9
2011-01-13 08:42:36 51°21.228 2°51.46 320.7 11.5 329 22.9
2011-01-13 08:42:42 51°21.245 2°51.444 322.1 11.5 327 23.7
2011-01-13 08:42:47 51°21.259 2°51.43 319.4 11.7 327 24
2011-01-13 08:42:52 51°21.272 2°51.416 319.4 11.6 327 23.3
2011-01-13 08:42:57 51°21.286 2°51.403 321.9 11.8 332 24.3
2011-01-13 08:43:02 51°21.3 2°51.39 320.2 11.8 331 -999
2011-01-13 08:43:07 51°21.315 2°51.378 322.3 12 333 24.7
2011-01-13 08:43:12 51°21.329 2°51.365 322.4 11.8 331 25.2
2011-01-13 08:43:17 51°21.342 2°51.35 320.2 11.9 325 24.3
2011-01-13 08:43:22 51°21.357 2°51.337 320 11.8 330 24.9
2011-01-13 08:43:27 51°21.371 2°51.323 319.7 11.6 329 26
2011-01-13 08:43:32 51°21.384 2°51.31 320.5 11.8 329 25.2
2011-01-13 08:43:37 51°21.398 2°51.295 319.7 11.8 326 24.5
2011-01-13 08:43:42 51°21.412 2°51.283 320.6 11.7 330 24.8
2011-01-13 08:43:47 51°21.425 2°51.269 321 11.7 328 25.2
2011-01-13 08:43:52 51°21.44 2°51.255 321.1 11.8 330 26.5
2011-01-13 08:43:57 51°21.454 2°51.241 320.3 11.9 328 25.5
2011-01-13 08:44:02 51°21.467 2°51.227 321.1 11.8 327 25.4
2011-01-13 08:44:07 51°21.481 2°51.212 320.4 11.8 327 25.4
2011-01-13 08:44:12 51°21.495 2°51.199 320.6 11.8 329 24.8
2011-01-13 08:44:17 51°21.509 2°51.185 322 11.6 328 26
2011-01-13 08:44:22 51°21.523 2°51.171 320.6 11.8 327 25.9
2011-01-13 08:44:27 51°21.537 2°51.158 320.9 11.6 329 24.8
2011-01-13 08:44:32 51°21.55 2°51.144 321.2 11.6 328 24.9
2011-01-13 08:44:36 51°21.562 2°51.134 322.4 11.7 330 25.6
2011-01-13 08:44:42 51°21.579 2°51.119 324.9 11.9 333 25.2
2011-01-13 08:44:47 51°21.595 2°51.108 327.3 12 335 24.9
2011-01-13 08:44:52 51°21.61 2°51.098 329.4 12.1 337 25.7
2011-01-13 08:44:56 51°21.622 2°51.09 330.7 12.1 339 25.8
2011-01-13 08:45:02 51°21.642 2°51.08 333.2 12.3 341 24.8
2011-01-13 08:45:07 51°21.657 2°51.071 333 11.9 338 25.7
2011-01-13 08:45:12 51°21.673 2°51.065 335.1 11.9 345 26.3
2011-01-13 08:45:17 51°21.689 2°51.055 333.2 11.9 341 26.4
2011-01-13 08:45:22 51°21.704 2°51.045 334.7 12 338 25.2
2011-01-13 08:45:27 51°21.72 2°51.036 332.8 12 341 26.3
2011-01-13 08:45:32 51°21.736 2°51.028 334.9 12 342 26.4
2011-01-13 08:45:37 51°21.752 2°51.02 334.7 12.2 341 26.4
2011-01-13 08:45:42 51°21.768 2°51.011 336.5 12.2 341 26.3
2011-01-13 08:45:47 51°21.784 2°51 334.6 12.3 336 24.9
2011-01-13 08:45:52 51°21.8 2°50.994 337.8 12.3 345 24.9
2011-01-13 08:45:57 51°21.816 2°50.985 336.4 12.3 341 24.8
2011-01-13 08:46:02 51°21.833 2°50.976 335.3 12.3 341 25.3
2011-01-13 08:46:07 51°21.848 2°50.966 334.8 12.3 339 24.8
2011-01-13 08:46:12 51°21.865 2°50.959 337.1 12.6 347 25.5
2011-01-13 08:46:17 51°21.881 2°50.948 334.7 12.2 335 24.9
2011-01-13 08:46:22 51°21.897 2°50.94 334.9 12.3 341 24.7
2011-01-13 08:46:27 51°21.914 2°50.932 335 12.4 344 25.1
2011-01-13 08:46:32 51°21.929 2°50.92 336.4 12.2 338 24.8
2011-01-13 08:46:37 51°21.944 2°50.91 331.9 12.2 337 23.8
2011-01-13 08:46:42 51°21.96 2°50.899 332.6 12.2 339 23.8
2011-01-13 08:46:47 51°21.976 2°50.89 335.1 12.3 339 24.1
2011-01-13 08:46:52 51°21.992 2°50.88 333.2 12.3 339 24.1
2011-01-13 08:46:57 51°22.007 2°50.868 331.3 12.2 335 24.3
2011-01-13 08:47:02 51°22.023 2°50.859 333.4 12.2 336 24.1
2011-01-13 08:47:07 51°22.039 2°50.847 332 12.2 335 23.4
2011-01-13 08:47:12 51°22.055 2°50.839 333.1 12.3 341 23.8
2011-01-13 08:47:17 51°22.069 2°50.826 331.8 12.1 332 24.1
2011-01-13 08:47:22 51°22.085 2°50.815 328.5 12.1 335 24
2011-01-13 08:47:27 51°22.099 2°50.801 328.4 12.1 330 23.8
2011-01-13 08:47:32 51°22.115 2°50.79 329 12.3 337 24
2011-01-13 08:47:36 51°22.126 2°50.78 327.4 12.1 333 25.1
2011-01-13 08:47:42 51°22.144 2°50.765 326.2 12.1 331 25.1
2011-01-13 08:47:47 51°22.159 2°50.751 326.1 12.1 331 25.1
2011-01-13 08:47:52 51°22.173 2°50.739 326.8 12.1 333 24.5
2011-01-13 08:47:57 51°22.188 2°50.725 327.1 12 331 24.8
2011-01-13 08:48:02 51°22.203 2°50.712 326.5 12 330 24.8
2011-01-13 08:48:07 51°22.217 2°50.699 324 12.1 331 25.3
2011-01-13 08:48:12 51°22.231 2°50.685 323 11.7 329 25.9
2011-01-13 08:48:17 51°22.246 2°50.673 321.7 11.8 332 26.1
2011-01-13 08:48:22 51°22.26 2°50.66 323.1 11.9 328 25.5
2011-01-13 08:48:27 51°22.274 2°50.646 321.8 11.8 328 24.3
2011-01-13 08:48:32 51°22.286 2°50.63 319.4 11.6 324 25
2011-01-13 08:48:37 51°22.3 2°50.616 319.4 11.7 327 23.8
2011-01-13 08:48:42 51°22.312 2°50.601 319.3 11.3 322 24.8
2011-01-13 08:48:47 51°22.325 2°50.585 316.8 11.3 321 25.4
2011-01-13 08:48:52 51°22.336 2°50.568 315.1 11.4 319 25.1
2011-01-13 08:48:56 51°22.346 2°50.554 312.8 11.5 318 24.8
2011-01-13 08:49:02 51°22.359 2°50.533 311 11.5 315 24.3
2011-01-13 08:49:07 51°22.369 2°50.514 307.6 11.2 311 24.5
2011-01-13 08:49:12 51°22.379 2°50.496 305.2 11.2 311 24.1
2011-01-13 08:49:17 51°22.389 2°50.478 304.1 10.9 312 25.4
2011-01-13 08:49:22 51°22.399 2°50.459 305 11 310 25
2011-01-13 08:49:27 51°22.408 2°50.44 302.7 10.9 307 24.3
2011-01-13 08:49:32 51°22.417 2°50.42 301.2 10.9 307 24.7
2011-01-13 08:49:37 51°22.426 2°50.4 300.1 11.2 305 -999
2011-01-13 08:49:42 51°22.435 2°50.38 298.8 10.9 307 24.5
2011-01-13 08:49:47 51°22.443 2°50.36 299.2 11 303 24.8
2011-01-13 08:49:52 51°22.452 2°50.339 298.2 11.3 304 25
2011-01-13 08:49:56 51°22.459 2°50.322 297.3 11.5 303 24.1
2011-01-13 08:50:02 51°22.47 2°50.296 296.9 11.8 304 24.3
2011-01-13 08:50:07 51°22.478 2°50.274 296.6 11.9 304 24.1
2011-01-13 08:50:12 51°22.487 2°50.252 296.9 11.9 302 23.7
2011-01-13 08:50:17 51°22.495 2°50.232 295.3 11.1 303 -999
2011-01-13 08:50:23 51°22.506 2°50.207 296.1 11.3 305 -999
2011-01-13 08:50:28 51°22.514 2°50.186 296 11.2 302 -999
2011-01-13 08:50:33 51°22.522 2°50.164 295.4 11.4 301 22.7
2011-01-13 08:50:38 51°22.532 2°50.143 295.5 11.6 304 22.9
2011-01-13 08:50:43 51°22.541 2°50.123 296.1 11.6 304 23.6
2011-01-13 08:50:48 51°22.549 2°50.101 297 11.6 301 22.3
2011-01-13 08:50:52 51°22.555 2°50.083 293.8 11.7 299 21.8
2011-01-13 08:50:57 51°22.564 2°50.06 294 11.9 302 22.5
2011-01-13 08:51:03 51°22.574 2°50.033 295.3 12 303 21.2
2011-01-13 08:51:07 51°22.581 2°50.014 296.4 12.1 303 21.7
2011-01-13 08:51:12 51°22.59 2°49.992 296.4 12.1 302 20.5
2011-01-13 08:51:16 51°22.597 2°49.975 296.9 11.9 304 21
2011-01-13 08:51:23 51°22.611 2°49.945 298.1 11.8 306 -999
2011-01-13 08:51:28 51°22.62 2°49.925 299.5 11.4 306 22.4
2011-01-13 08:51:32 51°22.627 2°49.907 298.6 11.5 304 21.1
2011-01-13 08:51:37 51°22.636 2°49.886 299.1 11.8 305 19.8
2011-01-13 08:51:43 51°22.647 2°49.86 297.7 11.9 304 19
2011-01-13 08:51:47 51°22.656 2°49.843 298.8 12.1 307 19.8
2011-01-13 08:51:52 51°22.665 2°49.821 299.1 11.7 304 20.2
2011-01-13 08:51:56 51°22.673 2°49.804 298.6 11.9 308 -999
2011-01-13 08:52:02 51°22.684 2°49.78 300 11.4 304 18.2
2011-01-13 08:52:08 51°22.695 2°49.757 297.5 11.2 306 -999
2011-01-13 08:52:13 51°22.704 2°49.739 299.1 10 308 -999
2011-01-13 08:52:19 51°22.714 2°49.718 301 10.1 307 -999
2011-01-13 08:52:24 51°22.722 2°49.698 297.7 10.5 304 -999
2011-01-13 08:52:29 51°22.731 2°49.679 298.4 10.3 308 -999
2011-01-13 08:52:35 51°22.741 2°49.657 299.5 10.5 305 19.5
2011-01-13 08:52:40 51°22.75 2°49.637 299.2 10.8 305 18.8
2011-01-13 08:52:45 51°22.758 2°49.616 299.4 11.1 303 18
2011-01-13 08:52:49 51°22.766 2°49.599 298.4 11.5 305 18
2011-01-13 08:52:54 51°22.775 2°49.578 298.4 11.6 304 17.4
2011-01-13 08:53:00 51°22.787 2°49.552 299.1 11.8 306 17.2
2011-01-13 08:53:04 51°22.794 2°49.535 299.1 11.9 305 17.3
2011-01-13 08:53:09 51°22.805 2°49.513 299.5 12.1 306 17.1
2011-01-13 08:53:14 51°22.814 2°49.491 300.2 12.2 303 17.4
2011-01-13 08:53:19 51°22.824 2°49.468 298.5 12.2 306 16.9
2011-01-13 08:53:24 51°22.834 2°49.446 299.1 12.2 306 17
2011-01-13 08:53:28 51°22.842 2°49.428 299.5 12.2 305 17.2
2011-01-13 08:53:33 51°22.851 2°49.407 299.8 11.6 305 17.1
2011-01-13 08:53:38 51°22.86 2°49.388 297.8 11 308 -999
2011-01-13 08:53:44 51°22.872 2°49.364 301.6 11.1 305 -999
2011-01-13 08:53:50 51°22.882 2°49.341 297.7 11 305 -999
2011-01-13 08:53:56 51°22.893 2°49.317 297.3 11.2 306 -999
2011-01-13 08:54:00 51°22.901 2°49.301 298.2 11.1 306 17.2
2011-01-13 08:54:05 51°22.909 2°49.28 299 11.3 304 16.3
2011-01-13 08:54:10 51°22.918 2°49.258 297.9 11.6 304 16.5
2011-01-13 08:54:15 51°22.927 2°49.236 296.9 11.9 305 16.3
2011-01-13 08:54:20 51°22.936 2°49.214 298.5 11.9 304 16.9
2011-01-13 08:54:24 51°22.944 2°49.196 299 12.2 305 16.6
2011-01-13 08:54:29 51°22.954 2°49.175 298.4 12.2 306 16.8
2011-01-13 08:54:34 51°22.964 2°49.153 300.1 12 306 18
2011-01-13 08:54:39 51°22.972 2°49.132 300.1 11.6 304 19.1
2011-01-13 08:54:44 51°22.982 2°49.11 297.3 12 307 19
2011-01-13 08:54:49 51°22.992 2°49.089 299.1 12 306 19.3
2011-01-13 08:54:54 51°23.001 2°49.069 300.2 11.3 308 21.3
2011-01-13 08:55:00 51°23.012 2°49.046 298.2 11.1 307 -999
2011-01-13 08:55:05 51°23.022 2°49.025 301.3 11.5 307 -999
2011-01-13 08:55:10 51°23.032 2°49.005 299.8 11.4 307 21.6
2011-01-13 08:55:15 51°23.041 2°48.985 301.1 11.2 307 20.5
2011-01-13 08:55:20 51°23.05 2°48.964 300.9 11.3 306 22
2011-01-13 08:55:25 51°23.059 2°48.943 299.3 11.5 304 21.4
2011-01-13 08:55:30 51°23.069 2°48.922 299.2 11.7 305 21.1
2011-01-13 08:55:35 51°23.078 2°48.9 298.9 11.8 304 21.3
2011-01-13 08:55:40 51°23.088 2°48.878 298.8 12 304 21.6
2011-01-13 08:55:44 51°23.095 2°48.86 298.5 11.9 304 22
2011-01-13 08:55:49 51°23.105 2°48.839 298.3 11.8 305 22.5
2011-01-13 08:55:54 51°23.114 2°48.817 298.9 12 304 21.4
2011-01-13 08:55:59 51°23.123 2°48.795 298.6 12 301 21.8
2011-01-13 08:56:04 51°23.132 2°48.773 297.2 11.9 305 21.1
2011-01-13 08:56:09 51°23.142 2°48.751 298.1 12 307 -999
2011-01-13 08:56:15 51°23.153 2°48.728 298.9 11.4 306 -999
2011-01-13 08:56:20 51°23.161 2°48.707 298.1 11.3 303 -999
2011-01-13 08:56:25 51°23.17 2°48.685 297.1 11.7 304 21.1
2011-01-13 08:56:30 51°23.18 2°48.664 297.7 11.9 306 20.2
2011-01-13 08:56:35 51°23.189 2°48.644 299.1 11.5 306 19.8
2011-01-13 08:56:40 51°23.198 2°48.623 300 11.4 306 20.1
2011-01-13 08:56:45 51°23.207 2°48.602 298.5 11.6 304 -999
2011-01-13 08:56:50 51°23.217 2°48.581 298.4 11.6 307 19.8
2011-01-13 08:56:55 51°23.226 2°48.559 299.8 11.6 303 21.2
2011-01-13 08:57:00 51°23.236 2°48.539 298.5 11.6 307 22.8
2011-01-13 08:57:05 51°23.245 2°48.518 298.7 11.6 305 22.3
2011-01-13 08:57:10 51°23.254 2°48.496 298.8 11.7 304 21.8
2011-01-13 08:57:15 51°23.263 2°48.474 297.4 11.8 304 -999
2011-01-13 08:57:20 51°23.273 2°48.453 297.6 11.6 306 21
2011-01-13 08:57:25 51°23.282 2°48.431 299.8 11.6 303 21.7
2011-01-13 08:57:29 51°23.289 2°48.414 298.3 11.6 304 21.8
2011-01-13 08:57:35 51°23.301 2°48.39 298.5 11.4 309 -999
2011-01-13 08:57:40 51°23.31 2°48.371 300.6 11 307 -999
2011-01-13 08:57:46 51°23.319 2°48.347 298.9 10.9 302 -999
2011-01-13 08:57:50 51°23.325 2°48.33 294.8 10.9 301 21.5
2011-01-13 08:57:56 51°23.336 2°48.306 295.8 11.2 304 22.2
2011-01-13 08:58:00 51°23.343 2°48.288 297.2 11.5 305 22.6
2011-01-13 08:58:05 51°23.353 2°48.267 298.2 11.7 307 22
2011-01-13 08:58:10 51°23.362 2°48.247 299 11.8 307 23.5
2011-01-13 08:58:15 51°23.371 2°48.226 300.2 11.4 303 23.8
2011-01-13 08:58:20 51°23.38 2°48.204 298.3 11.5 303 23.6
2011-01-13 08:58:24 51°23.387 2°48.187 298 11.7 303 22.7
2011-01-13 08:58:29 51°23.397 2°48.165 297.7 11.9 304 22
2011-01-13 08:58:34 51°23.406 2°48.143 298.5 12 305 20.7
2011-01-13 08:58:39 51°23.416 2°48.121 299.3 12 306 19.8
2011-01-13 08:58:44 51°23.425 2°48.099 299.9 12 303 21.2
2011-01-13 08:58:49 51°23.436 2°48.077 299 12.3 307 21.6
2011-01-13 08:58:54 51°23.445 2°48.055 299.8 12.1 305 23.3
2011-01-13 08:58:58 51°23.454 2°48.038 300.5 12.2 306 23.6
2011-01-13 08:59:04 51°23.464 2°48.012 298.6 12.1 303 23.1
2011-01-13 08:59:08 51°23.472 2°47.995 299 12.2 306 23.5
2011-01-13 08:59:13 51°23.482 2°47.974 298.9 11.9 306 -999
2011-01-13 08:59:18 51°23.492 2°47.953 300.1 11.8 306 22.2
2011-01-13 08:59:23 51°23.501 2°47.932 298.8 11.6 303 -999
2011-01-13 08:59:28 51°23.51 2°47.91 298.7 11.7 304 18.9
2011-01-13 08:59:33 51°23.52 2°47.889 299.2 11.9 305 21.1
2011-01-13 08:59:38 51°23.529 2°47.867 299.2 11.9 306 22.4
2011-01-13 08:59:43 51°23.538 2°47.846 299.8 11.8 306 21.5
2011-01-13 08:59:48 51°23.547 2°47.824 299.9 12 304 19.9
2011-01-13 08:59:52 51°23.555 2°47.806 299.1 12 305 20.5
2011-01-13 08:59:58 51°23.566 2°47.782 299 11.5 307 -999
2011-01-13 09:00:04 51°23.579 2°47.759 300.8 11.5 310 -999
2011-01-13 09:00:08 51°23.586 2°47.742 301.3 11.4 306 -999
2011-01-13 09:00:14 51°23.596 2°47.718 298.7 11.5 303 22.6
2011-01-13 09:00:18 51°23.604 2°47.701 297.5 11.6 305 22
2011-01-13 09:00:24 51°23.614 2°47.677 298.9 11.4 305 22.7
2011-01-13 09:00:28 51°23.622 2°47.66 298.4 11.2 303 -999
2011-01-13 09:00:33 51°23.631 2°47.639 297.9 11.5 305 22.8
2011-01-13 09:00:39 51°23.641 2°47.613 298.7 11.3 304 42
2011-01-13 09:00:44 51°23.65 2°47.593 298.6 11.6 306 23.1
2011-01-13 09:00:48 51°23.658 2°47.576 299.8 11.5 306 22.9
2011-01-13 09:00:53 51°23.667 2°47.555 300.6 11.3 305 20.1
2011-01-13 09:00:58 51°23.676 2°47.534 300 11.4 304 20.6
2011-01-13 09:01:03 51°23.685 2°47.512 300.5 11.7 303 22.3
2011-01-13 09:01:08 51°23.694 2°47.49 299.5 11.7 303 24.2
2011-01-13 09:01:13 51°23.703 2°47.468 297 11.9 302 24.8
2011-01-13 09:01:18 51°23.712 2°47.446 297.1 12 303 24.9
2011-01-13 09:01:23 51°23.72 2°47.423 296.3 11.8 300 24.8
2011-01-13 09:01:28 51°23.729 2°47.401 295.5 11.8 302 23.9
2011-01-13 09:01:32 51°23.736 2°47.383 296.8 12 302 22
2011-01-13 09:01:37 51°23.745 2°47.36 297.5 12 302 21.4
2011-01-13 09:01:42 51°23.753 2°47.337 295.4 12.1 299 22.6
2011-01-13 09:01:47 51°23.762 2°47.314 294.7 12.1 300 23.6
2011-01-13 09:01:52 51°23.77 2°47.291 295 12 300 25.8
2011-01-13 09:01:57 51°23.778 2°47.267 293.8 12.2 299 25.7
2011-01-13 09:02:02 51°23.786 2°47.246 294.3 11.5 300 -999
2011-01-13 09:02:07 51°23.793 2°47.223 294.3 11.4 295 25.7
2011-01-13 09:02:12 51°23.8 2°47.2 292.6 11.6 297 25.1
2011-01-13 09:02:17 51°23.807 2°47.177 292.9 11.7 298 25.3
2011-01-13 09:02:22 51°23.815 2°47.154 292.2 12 298 27.1
2011-01-13 09:02:27 51°23.823 2°47.131 292.6 11.9 299 26.7
2011-01-13 09:02:32 51°23.831 2°47.108 292.6 12.1 298 26.9
2011-01-13 09:02:37 51°23.837 2°47.084 290.8 11.9 295 25.9
2011-01-13 09:02:42 51°23.846 2°47.062 293.5 11.6 301 26.3
2011-01-13 09:02:47 51°23.853 2°47.038 292.8 11.4 293 25.1
2011-01-13 09:02:52 51°23.86 2°47.016 290.8 11.3 298 26.7
2011-01-13 09:02:58 51°23.869 2°46.989 292.1 11.5 299 -999
2011-01-13 09:03:03 51°23.876 2°46.967 291.6 11.3 298 26.9
2011-01-13 09:03:08 51°23.883 2°46.945 290.6 11.3 296 27.4
2011-01-13 09:03:12 51°23.889 2°46.926 291.2 11.5 297 27.3
2011-01-13 09:03:17 51°23.897 2°46.904 292.1 11.7 298 27.8
2011-01-13 09:03:22 51°23.904 2°46.881 292.5 11.5 297 26.9
2011-01-13 09:03:27 51°23.911 2°46.858 292.8 11.5 298 27.9
2011-01-13 09:03:32 51°23.919 2°46.835 293.8 11.7 299 28.2
2011-01-13 09:03:36 51°23.926 2°46.816 293 11.9 298 28.4
2011-01-13 09:03:42 51°23.935 2°46.788 293.8 12.1 299 29.5
2011-01-13 09:03:47 51°23.943 2°46.764 292.7 12.1 297 30.2
2011-01-13 09:03:52 51°23.95 2°46.74 291.3 12.1 298 30
2011-01-13 09:03:57 51°23.958 2°46.719 292.8 11.5 300 48.8
2011-01-13 09:04:03 51°23.968 2°46.693 293.4 11.4 301 -999
2011-01-13 09:04:08 51°23.976 2°46.674 293.7 10.9 304 -999
2011-01-13 09:04:13 51°23.983 2°46.654 296.4 10.6 300 -999
2011-01-13 09:04:19 51°23.992 2°46.628 293.3 11 296 29.7
2011-01-13 09:04:24 51°23.998 2°46.605 290.1 11.3 296 30
2011-01-13 09:04:28 51°24.005 2°46.589 291.3 11.1 301 30.9
2011-01-13 09:04:34 51°24.013 2°46.565 292.9 10.6 298 31.3
2011-01-13 09:04:39 51°24.021 2°46.544 292.3 10.3 300 -999
2011-01-13 09:04:44 51°24.028 2°46.523 294.3 10.7 299 -999
2011-01-13 09:04:50 51°24.036 2°46.497 293.2 10.9 297 30.4
2011-01-13 09:04:55 51°24.044 2°46.475 291.1 11.1 297 30.2
2011-01-13 09:05:00 51°24.051 2°46.453 291.6 11.4 300 29
2011-01-13 09:05:04 51°24.057 2°46.434 293.5 11.5 296 29
2011-01-13 09:05:09 51°24.064 2°46.411 290.8 11.6 296 30.1
2011-01-13 09:05:14 51°24.072 2°46.388 291.7 11.8 299 30.5
2011-01-13 09:05:19 51°24.079 2°46.364 292.5 11.9 296 30.9
2011-01-13 09:05:24 51°24.087 2°46.341 292.9 12.2 299 31.3
2011-01-13 09:05:28 51°24.093 2°46.321 293.5 12.2 298 32.7
2011-01-13 09:05:33 51°24.102 2°46.298 292.7 12.2 300 32.7
2011-01-13 09:05:38 51°24.11 2°46.274 294.1 12.3 300 32.9
2011-01-13 09:05:43 51°24.118 2°46.251 294 11.9 300 31.9
2011-01-13 09:05:48 51°24.126 2°46.228 295.1 11.7 300 30.1
2011-01-13 09:05:53 51°24.133 2°46.205 295 11.7 297 30
2011-01-13 09:05:58 51°24.142 2°46.182 295 12 300 30
2011-01-13 09:06:03 51°24.149 2°46.158 294.6 12 296 30
2011-01-13 09:06:07 51°24.156 2°46.139 293.6 11.9 301 29
2011-01-13 09:06:12 51°24.164 2°46.117 294.7 11.8 300 29.1
2011-01-13 09:06:17 51°24.173 2°46.094 294.3 11.7 299 30.1
2011-01-13 09:06:22 51°24.18 2°46.071 293.3 11.7 297 29.7
2011-01-13 09:06:27 51°24.188 2°46.048 293.3 11.7 297 29.7
2011-01-13 09:06:32 51°24.196 2°46.025 293.6 11.6 299 30.6
2011-01-13 09:06:37 51°24.204 2°46.002 295.1 11.7 299 30.8
2011-01-13 09:06:42 51°24.211 2°45.979 292.1 11.7 297 -999
2011-01-13 09:06:47 51°24.219 2°45.957 291.8 11.5 300 28.7
2011-01-13 09:06:52 51°24.227 2°45.934 294.8 11.5 299 29.3
2011-01-13 09:06:56 51°24.233 2°45.916 294 11.5 297 29.4
2011-01-13 09:07:02 51°24.242 2°45.888 292.8 11.8 298 28.8
2011-01-13 09:07:07 51°24.25 2°45.864 293.5 11.8 298 28.2
2011-01-13 09:07:12 51°24.257 2°45.84 294.1 11.9 296 27.5
2011-01-13 09:07:16 51°24.264 2°45.822 294.4 12.1 300 27.7
2011-01-13 09:07:22 51°24.274 2°45.793 293.9 12.1 298 27.7
2011-01-13 09:07:27 51°24.282 2°45.769 293.6 12.2 298 28.7
2011-01-13 09:07:32 51°24.29 2°45.746 293.3 12 299 29.1
2011-01-13 09:07:37 51°24.298 2°45.723 293.5 12 299 27.9
2011-01-13 09:07:42 51°24.306 2°45.7 294 11.8 300 28.2
2011-01-13 09:07:47 51°24.313 2°45.676 293.9 11.9 299 29
2011-01-13 09:07:52 51°24.321 2°45.654 294.3 11.9 300 28.2
2011-01-13 09:07:57 51°24.328 2°45.631 292.9 11.7 296 26.9
2011-01-13 09:08:02 51°24.335 2°45.608 291.4 11.7 297 27.1
2011-01-13 09:08:07 51°24.342 2°45.585 291.1 11.1 295 27.6
2011-01-13 09:08:12 51°24.348 2°45.562 288.6 11.3 292 5.2
2011-01-13 09:08:18 51°24.354 2°45.535 285.6 11 290 27.9
2011-01-13 09:08:23 51°24.359 2°45.512 284.2 11.1 290 28.1
2011-01-13 09:08:27 51°24.363 2°45.493 285.1 11.4 290 28
2011-01-13 09:08:32 51°24.369 2°45.469 285.5 11.5 291 27.3
2011-01-13 09:08:37 51°24.374 2°45.447 285 10.9 289 -999
2011-01-13 09:08:43 51°24.379 2°45.419 284.7 11.1 288 28.2
2011-01-13 09:08:47 51°24.383 2°45.399 282.7 11.3 285 28.1
2011-01-13 09:08:52 51°24.387 2°45.377 280 11.2 286 -999
2011-01-13 09:08:58 51°24.392 2°45.352 281 10 286 -999
2011-01-13 09:09:04 51°24.395 2°45.324 278 10.1 280 -999
2011-01-13 09:09:08 51°24.396 2°45.306 274.1 10.1 280 27.3
2011-01-13 09:09:13 51°24.4 2°45.284 275.9 10.3 284 28.2
2011-01-13 09:09:18 51°24.403 2°45.261 277.7 10.6 280 27.1
2011-01-13 09:09:23 51°24.405 2°45.237 275.3 10.8 278 27.4
2011-01-13 09:09:28 51°24.407 2°45.213 273.8 10.9 278 28.2
2011-01-13 09:09:32 51°24.409 2°45.194 274.4 10.8 278 27.1